Time;durP1;ratioP1;P1;durP2;ratioP2;P2;SDS_P1;SDS_P2;PMS_P1;PMS_P2;Temp;Humidity;BMP_temperature;BMP_pressure;BME280_temperature;BME280_humidity;BME280_pressure;Samples;Min_cycle;Max_cycle;Signal;HPM_P1;HPM_P2
2022/12/13 00:00:15;;;;;;;61.15;31.52;;;1.70;99.90;;;;;;5033869;28;20539;-82
2022/12/13 00:02:40;;;;;;;65.95;32.75;;;1.60;99.90;;;;;;5034047;28;20036;-82
2022/12/13 00:05:07;;;;;;;60.08;34.03;;;1.60;99.90;;;;;;5034533;28;20017;-82
2022/12/13 00:07:34;;;;;;;63.55;33.28;;;1.60;99.90;;;;;;5034217;28;20021;-81
2022/12/13 00:09:59;;;;;;;67.85;33.67;;;1.50;99.90;;;;;;5034080;28;20156;-82
2022/12/13 00:12:25;;;;;;;58.28;32.65;;;1.50;99.90;;;;;;5028005;28;20026;-82
2022/12/13 00:14:51;;;;;;;57.25;31.02;;;1.60;99.90;;;;;;5015378;28;20053;-82
2022/12/13 00:17:16;;;;;;;59.75;32.17;;;1.60;99.90;;;;;;5028131;28;20053;-88
2022/12/13 00:19:42;;;;;;;60.42;32.03;;;1.70;99.90;;;;;;5035194;28;20029;-88
2022/12/13 00:22:08;;;;;;;60.28;31.33;;;1.70;99.90;;;;;;5035415;28;20474;-88
2022/12/13 00:24:33;;;;;;;53.90;30.63;;;1.60;99.90;;;;;;5017399;28;20106;-88
2022/12/13 00:26:59;;;;;;;62.35;32.80;;;1.50;99.90;;;;;;5035423;28;20038;-88
2022/12/13 00:29:25;;;;;;;58.45;32.38;;;1.30;99.90;;;;;;5035303;28;20033;-88
2022/12/13 00:31:50;;;;;;;56.92;31.13;;;1.60;99.90;;;;;;5035585;28;20455;-88
2022/12/13 00:34:17;;;;;;;59.30;32.05;;;1.40;99.90;;;;;;5035336;28;20057;-88
2022/12/13 00:36:43;;;;;;;60.75;32.58;;;1.20;99.90;;;;;;5035007;28;20037;-88
2022/12/13 00:39:11;;;;;;;55.53;30.67;;;1.40;99.90;;;;;;5035277;28;20041;-88
2022/12/13 00:41:37;;;;;;;62.28;31.95;;;1.50;99.90;;;;;;5034993;28;20522;-88
2022/12/13 00:44:03;;;;;;;58.05;31.52;;;1.40;99.90;;;;;;5035403;28;20060;-88
2022/12/13 00:46:29;;;;;;;56.13;30.77;;;1.60;99.90;;;;;;5035378;28;20421;-88
2022/12/13 00:48:58;;;;;;;53.60;29.70;;;1.80;99.90;;;;;;5017566;28;20033;-88
2022/12/13 00:51:26;;;;;;;53.35;29.88;;;1.60;99.90;;;;;;5035842;28;20022;-88
2022/12/13 00:53:52;;;;;;;52.97;29.80;;;1.60;99.90;;;;;;5034650;28;20104;-88
2022/12/13 00:56:20;;;;;;;51.85;29.98;;;1.70;99.90;;;;;;5034744;28;20029;-88
2022/12/13 00:58:47;;;;;;;49.42;28.63;;;2.10;99.90;;;;;;5017303;28;20033;-88
2022/12/13 01:01:15;;;;;;;49.08;28.73;;;1.70;99.90;;;;;;5019409;28;20481;-88
2022/12/13 01:03:41;;;;;;;49.22;29.30;;;1.70;99.90;;;;;;5017490;28;20029;-88
2022/12/13 01:06:19;;;;;;;48.20;27.00;;;2.20;99.90;;;;;;5017690;28;20068;-88
2022/12/13 01:08:45;;;;;;;50.92;27.33;;;1.50;99.90;;;;;;5017297;28;20067;-88
2022/12/13 01:11:12;;;;;;;49.05;28.13;;;1.60;99.90;;;;;;5035040;28;20110;-89
2022/12/13 01:13:38;;;;;;;49.47;28.17;;;1.60;99.90;;;;;;5007215;28;20029;-89
2022/12/13 01:16:07;;;;;;;47.38;28.38;;;1.70;99.90;;;;;;5034345;28;20071;-88
2022/12/13 01:18:33;;;;;;;44.88;27.15;;;1.80;99.90;;;;;;5034782;28;20077;-88
2022/12/13 01:21:01;;;;;;;48.17;27.67;;;1.60;99.90;;;;;;5034403;28;20049;-88
2022/12/13 01:23:27;;;;;;;48.65;27.30;;;1.70;99.90;;;;;;5034377;28;20026;-88
2022/12/13 01:25:54;;;;;;;44.25;26.77;;;1.60;99.90;;;;;;5033867;28;20033;-88
2022/12/13 01:28:20;;;;;;;45.97;26.13;;;1.70;99.90;;;;;;5034441;28;20175;-88
2022/12/13 01:30:54;;;;;;;46.13;26.60;;;1.60;99.90;;;;;;5017040;28;20033;-89
2022/12/13 01:33:20;;;;;;;46.90;27.27;;;1.70;99.90;;;;;;5034185;28;20032;-88
2022/12/13 01:35:45;;;;;;;44.83;27.15;;;1.70;99.90;;;;;;5016440;28;20089;-88
2022/12/13 01:38:11;;;;;;;41.50;25.27;;;1.60;99.90;;;;;;5016612;28;20048;-88
2022/12/13 01:40:46;;;;;;;44.67;26.00;;;1.70;99.90;;;;;;5016713;28;20405;-88
2022/12/13 01:43:13;;;;;;;41.60;24.80;;;1.50;99.90;;;;;;5016406;28;20075;-88
2022/12/13 01:45:40;;;;;;;41.88;24.45;;;1.60;99.90;;;;;;5017236;28;20565;-89
2022/12/13 01:48:11;;;;;;;41.28;24.77;;;1.70;99.90;;;;;;5000902;28;20018;-89
2022/12/13 01:50:41;;;;;;;39.45;23.85;;;1.70;99.90;;;;;;5033748;28;20096;-88
2022/12/13 01:53:10;;;;;;;39.92;22.63;;;1.80;99.90;;;;;;5033255;28;20029;-88
2022/12/13 01:55:38;;;;;;;36.90;22.48;;;1.90;99.90;;;;;;5033994;28;20037;-89
2022/12/13 01:58:05;;;;;;;41.70;23.95;;;1.80;99.90;;;;;;5033492;28;20037;-88
2022/12/13 02:00:34;;;;;;;39.15;23.00;;;1.90;99.90;;;;;;5016340;28;20038;-88
2022/12/13 02:03:01;;;;;;;40.25;23.67;;;1.90;99.90;;;;;;5033486;28;20167;-88
2022/12/13 02:05:35;;;;;;;39.30;21.60;;;1.90;99.90;;;;;;5033850;28;20040;-88
2022/12/13 02:08:02;;;;;;;38.38;22.15;;;1.90;99.90;;;;;;5033591;28;20040;-88
2022/12/13 02:10:28;;;;;;;40.20;23.25;;;2.00;99.90;;;;;;5033669;28;20398;-88
2022/12/13 02:12:54;;;;;;;33.53;19.88;;;1.90;99.90;;;;;;5023402;28;20026;-88
2022/12/13 02:15:21;;;;;;;35.05;21.13;;;1.80;99.90;;;;;;5027664;28;20026;-88
2022/12/13 02:17:49;;;;;;;35.53;22.02;;;1.80;99.90;;;;;;5033882;28;20033;-88
2022/12/13 02:20:54;;;;;;;32.88;20.45;;;1.50;99.90;;;;;;5033306;28;20111;-88
2022/12/13 02:23:23;;;;;;;32.80;19.45;;;1.60;99.90;;;;;;5020303;28;20108;-88
2022/12/13 02:25:59;;;;;;;35.03;20.60;;;1.60;99.90;;;;;;5033367;28;20021;-88
2022/12/13 02:28:40;;;;;;;33.17;20.45;;;1.40;99.90;;;;;;5015608;28;20159;-88
2022/12/13 02:31:14;;;;;;;30.73;19.73;;;1.40;99.90;;;;;;5033494;28;21210;-88
2022/12/13 02:33:52;;;;;;;33.83;19.80;;;1.50;99.90;;;;;;5015136;28;20017;-88
2022/12/13 02:36:24;;;;;;;31.58;19.77;;;1.30;99.90;;;;;;5033466;28;20061;-88
2022/12/13 02:39:22;;;;;;;34.30;20.05;;;1.20;99.90;;;;;;5015505;28;20342;-88
2022/12/13 02:41:51;;;;;;;31.95;19.38;;;1.30;99.90;;;;;;5032989;28;20037;-89
2022/12/13 02:44:19;;;;;;;31.48;19.58;;;1.60;99.90;;;;;;5033382;28;20030;-88
2022/12/13 02:46:58;;;;;;;30.27;19.02;;;1.50;99.90;;;;;;5033386;28;20030;-88
2022/12/13 02:49:28;;;;;;;32.67;19.27;;;1.40;99.90;;;;;;5033125;28;20065;-88
2022/12/13 02:51:56;;;;;;;29.55;19.17;;;1.50;99.90;;;;;;5033064;28;20018;-88
2022/12/13 02:54:22;;;;;;;28.63;17.63;;;1.60;99.90;;;;;;5032744;28;20048;-88
2022/12/13 02:56:55;;;;;;;27.90;17.85;;;1.40;99.90;;;;;;5033543;28;20083;-89
2022/12/13 02:59:29;;;;;;;27.58;17.20;;;1.30;99.90;;;;;;5015277;28;20031;-88
2022/12/13 03:02:19;;;;;;;27.83;17.10;;;1.30;99.90;;;;;;5032352;28;20036;-88
2022/12/13 03:08:23;;;;;;;28.67;17.80;;;1.30;99.90;;;;;;4972347;28;20049;-89
2022/12/13 03:11:09;;;;;;;30.55;17.77;;;1.60;99.90;;;;;;4972509;28;20035;-88
2022/12/13 03:13:43;;;;;;;27.73;14.75;;;1.70;99.90;;;;;;4974361;28;20031;-88
2022/12/13 03:16:27;;;;;;;26.90;16.58;;;1.40;99.90;;;;;;4972120;28;20078;-88
2022/12/13 03:18:58;;;;;;;25.20;15.88;;;1.30;99.90;;;;;;4972336;28;20074;-87
2022/12/13 03:21:24;;;;;;;27.63;17.08;;;1.60;99.90;;;;;;4972526;28;20030;-88
2022/12/13 03:23:50;;;;;;;26.83;17.52;;;1.30;99.90;;;;;;4956653;28;20052;-88
2022/12/13 03:26:24;;;;;;;27.23;16.20;;;1.20;99.90;;;;;;4956333;28;20027;-88
2022/12/13 03:28:50;;;;;;;26.60;16.35;;;1.40;99.90;;;;;;4941547;29;20047;-88
2022/12/13 03:31:16;;;;;;;25.35;16.90;;;1.50;99.90;;;;;;4951152;28;20033;-88
2022/12/13 03:33:42;;;;;;;27.27;15.15;;;1.40;99.90;;;;;;4975928;28;20023;-88
2022/12/13 03:36:08;;;;;;;27.33;16.95;;;1.40;99.90;;;;;;4974868;28;20047;-88
2022/12/13 03:38:35;;;;;;;25.48;16.65;;;1.50;99.90;;;;;;4975658;28;20134;-89
2022/12/13 03:41:05;;;;;;;27.02;17.27;;;1.50;99.90;;;;;;4953029;28;20399;-89
2022/12/13 03:43:31;;;;;;;27.58;16.75;;;1.60;99.90;;;;;;5018404;28;20552;-88
2022/12/13 03:45:56;;;;;;;26.80;17.60;;;1.60;99.90;;;;;;5018953;28;20037;-88
2022/12/13 03:48:22;;;;;;;27.33;17.38;;;1.60;99.90;;;;;;5035446;28;20041;-88
2022/12/13 03:50:49;;;;;;;29.13;18.23;;;1.40;99.90;;;;;;5036047;28;20056;-88
2022/12/13 03:53:14;;;;;;;28.55;18.20;;;1.70;99.90;;;;;;5036639;28;20029;-88
2022/12/13 03:55:40;;;;;;;27.55;17.25;;;1.50;99.90;;;;;;5036222;28;20401;-88
2022/12/13 03:58:06;;;;;;;26.85;17.45;;;1.70;99.90;;;;;;5036145;28;20029;-88
2022/12/13 04:00:31;;;;;;;28.83;16.60;;;1.70;99.90;;;;;;5036400;28;20033;-88
2022/12/13 04:02:57;;;;;;;26.00;17.00;;;1.40;99.90;;;;;;5017847;28;20022;-88
2022/12/13 04:05:23;;;;;;;25.33;16.80;;;1.20;99.90;;;;;;5035850;28;20041;-88
2022/12/13 04:07:48;;;;;;;27.48;17.92;;;1.40;99.90;;;;;;5018367;28;20025;-88
2022/12/13 04:10:14;;;;;;;26.58;17.05;;;1.50;99.90;;;;;;5035595;28;20120;-88
2022/12/13 04:15:24;;;;;;;30.63;16.95;;;1.30;99.90;;;;;;5035384;28;20492;-88
2022/12/13 04:17:49;;;;;;;26.20;16.52;;;1.50;99.90;;;;;;5018050;28;20030;-88
2022/12/13 04:20:15;;;;;;;26.08;16.23;;;1.20;99.90;;;;;;5017634;28;20367;-89
2022/12/13 04:22:41;;;;;;;27.35;15.93;;;1.40;99.90;;;;;;5018468;28;20112;-88
2022/12/13 04:25:07;;;;;;;26.08;15.70;;;1.30;99.90;;;;;;5035816;28;20552;-88
2022/12/13 04:27:32;;;;;;;27.40;16.90;;;1.20;99.90;;;;;;5036413;28;20377;-88
2022/12/13 04:29:58;;;;;;;27.35;17.05;;;1.20;99.90;;;;;;5017936;28;20042;-88
2022/12/13 04:32:24;;;;;;;26.17;16.13;;;1.40;99.90;;;;;;5035572;28;20397;-88
2022/12/13 04:34:50;;;;;;;26.40;15.75;;;1.30;99.90;;;;;;5035055;28;20032;-88
2022/12/13 04:37:15;;;;;;;26.35;15.73;;;1.40;99.90;;;;;;5035220;28;20029;-89
2022/12/13 04:39:41;;;;;;;25.98;16.42;;;1.40;99.90;;;;;;5017226;28;20032;-89
2022/12/13 04:42:07;;;;;;;23.25;15.48;;;1.30;99.90;;;;;;5035729;28;20025;-88
2022/12/13 04:44:32;;;;;;;24.05;16.45;;;1.30;99.90;;;;;;5034839;28;20504;-89
2022/12/13 04:46:58;;;;;;;23.60;15.18;;;1.60;99.90;;;;;;5034868;28;20056;-88
2022/12/13 04:49:24;;;;;;;25.50;15.52;;;1.40;99.90;;;;;;5017649;28;20037;-88
2022/12/13 04:51:49;;;;;;;23.58;15.55;;;1.50;99.90;;;;;;5034488;28;20477;-88
2022/12/13 04:54:15;;;;;;;25.05;15.65;;;1.50;99.90;;;;;;5035188;28;20021;-88
2022/12/13 04:56:40;;;;;;;21.80;14.40;;;1.80;99.90;;;;;;5017122;28;20025;-88
2022/12/13 04:59:06;;;;;;;22.98;14.63;;;1.70;99.90;;;;;;5017126;28;20517;-88
2022/12/13 05:01:32;;;;;;;22.75;15.18;;;1.50;99.90;;;;;;5034769;28;20026;-88
2022/12/13 05:03:58;;;;;;;22.65;14.63;;;1.60;99.90;;;;;;5034400;28;20100;-88
2022/12/13 05:06:24;;;;;;;21.25;14.13;;;1.80;99.90;;;;;;5016890;28;20040;-88
2022/12/13 05:08:49;;;;;;;23.65;15.73;;;1.70;99.90;;;;;;5017065;28;20053;-88
2022/12/13 05:11:15;;;;;;;23.77;15.27;;;1.70;99.90;;;;;;5016890;28;20025;-88
2022/12/13 05:13:41;;;;;;;23.27;14.55;;;1.60;99.90;;;;;;5034547;28;20029;-88
2022/12/13 05:16:08;;;;;;;23.80;14.90;;;1.40;99.90;;;;;;5034484;28;20124;-88
2022/12/13 05:18:35;;;;;;;23.75;13.80;;;1.60;99.90;;;;;;5016900;28;20030;-88
2022/12/13 05:21:06;;;;;;;22.83;15.27;;;1.40;99.90;;;;;;5017196;28;20041;-88
2022/12/13 05:23:32;;;;;;;23.98;15.85;;;1.60;99.90;;;;;;5034600;28;20022;-88
2022/12/13 05:25:57;;;;;;;26.55;16.67;;;1.60;99.90;;;;;;5016960;28;20029;-88
2022/12/13 05:28:26;;;;;;;24.95;16.23;;;1.80;99.90;;;;;;5033733;28;20029;-88
2022/12/13 05:30:57;;;;;;;24.38;16.02;;;1.50;99.90;;;;;;5034462;28;20048;-88
2022/12/13 05:33:23;;;;;;;23.50;14.85;;;1.60;99.90;;;;;;5034065;28;20017;-89
2022/12/13 05:35:49;;;;;;;26.23;14.68;;;1.50;99.90;;;;;;5025022;28;20499;-88
2022/12/13 05:38:14;;;;;;;23.58;14.10;;;1.40;99.90;;;;;;5014840;28;20103;-88
2022/12/13 05:40:40;;;;;;;21.42;13.50;;;1.50;99.90;;;;;;5021780;28;20096;-89
2022/12/13 05:43:06;;;;;;;21.00;11.40;;;1.50;99.90;;;;;;5034316;28;20490;-88
2022/12/13 05:45:32;;;;;;;21.20;12.93;;;1.30;99.90;;;;;;5033268;28;20021;-89
2022/12/13 05:47:58;;;;;;;21.70;12.65;;;1.30;99.90;;;;;;5033758;28;20036;-89
2022/12/13 05:50:24;;;;;;;18.45;10.70;;;1.20;99.90;;;;;;5033649;28;20124;-89
2022/12/13 05:52:50;;;;;;;22.33;12.95;;;1.50;99.90;;;;;;5034504;28;20063;-90
2022/12/13 05:55:15;;;;;;;22.90;12.50;;;1.20;99.90;;;;;;5016637;28;20649;-90
2022/12/13 05:57:41;;;;;;;19.52;12.55;;;1.30;99.90;;;;;;5033388;28;20500;-90
2022/12/13 06:00:09;;;;;;;18.48;12.40;;;1.30;99.90;;;;;;5034220;28;20025;-91
2022/12/13 06:02:41;;;;;;;20.90;13.77;;;1.40;99.90;;;;;;5034164;28;20037;-91
2022/12/13 06:05:08;;;;;;;18.33;12.23;;;1.40;99.90;;;;;;5016768;28;20055;-90
2022/12/13 06:07:35;;;;;;;16.10;9.27;;;1.50;99.90;;;;;;5033952;28;20100;-90
2022/12/13 06:10:01;;;;;;;16.33;11.27;;;1.40;99.90;;;;;;5016370;28;20041;-91
2022/12/13 06:12:27;;;;;;;20.73;12.35;;;1.40;99.90;;;;;;5022893;28;20021;-91
2022/12/13 06:14:52;;;;;;;19.60;12.45;;;1.30;99.90;;;;;;5044198;28;20159;-91
2022/12/13 06:17:18;;;;;;;21.95;11.75;;;1.50;99.90;;;;;;5033245;28;20076;-91
2022/12/13 06:19:45;;;;;;;17.27;11.48;;;1.70;99.90;;;;;;5033804;28;20044;-91
2022/12/13 06:22:11;;;;;;;21.02;11.65;;;1.40;99.90;;;;;;5033959;28;20056;-90
2022/12/13 06:24:36;;;;;;;17.25;11.25;;;1.50;99.90;;;;;;5034150;28;20041;-91
2022/12/13 06:27:04;;;;;;;16.63;11.45;;;1.60;99.90;;;;;;5032721;28;20034;-91
2022/12/13 06:29:30;;;;;;;19.15;11.20;;;1.50;99.90;;;;;;5034712;28;20041;-92
2022/12/13 06:32:00;;;;;;;15.60;10.98;;;1.60;99.90;;;;;;5033468;28;20070;-92
2022/12/13 06:34:26;;;;;;;18.17;11.93;;;1.60;99.90;;;;;;5033628;28;20025;-93
2022/12/13 06:36:52;;;;;;;18.30;11.68;;;1.50;99.90;;;;;;5033591;28;20033;-93
2022/12/13 06:39:18;;;;;;;19.77;11.70;;;1.60;99.90;;;;;;5033668;28;20044;-92
2022/12/13 06:41:44;;;;;;;23.42;13.05;;;1.50;99.90;;;;;;5033943;28;20021;-92
2022/12/13 06:44:10;;;;;;;23.33;12.07;;;1.70;99.90;;;;;;5016207;28;20398;-93
2022/12/13 06:46:36;;;;;;;19.73;11.52;;;1.60;99.90;;;;;;5033896;28;20026;-92
2022/12/13 06:49:02;;;;;;;18.88;11.73;;;1.50;99.90;;;;;;5016343;28;20498;-92
2022/12/13 06:51:27;;;;;;;18.45;11.30;;;1.60;99.90;;;;;;5034342;28;20545;-92
2022/12/13 06:53:53;;;;;;;23.77;11.52;;;1.50;99.90;;;;;;5016076;28;20057;-91
2022/12/13 06:56:19;;;;;;;29.70;12.45;;;1.70;99.90;;;;;;5033342;28;20040;-92
2022/12/13 06:58:44;;;;;;;27.42;13.23;;;1.70;99.90;;;;;;5033105;28;20025;-91
2022/12/13 07:01:16;;;;;;;22.80;12.60;;;1.90;99.90;;;;;;5033962;28;20538;-92
2022/12/13 07:03:42;;;;;;;21.30;12.75;;;1.90;99.90;;;;;;5037759;28;20122;-92
2022/12/13 07:06:16;;;;;;;22.02;13.40;;;2.00;99.90;;;;;;5037606;28;20034;-93
2022/12/13 07:08:44;;;;;;;29.08;13.18;;;2.00;99.90;;;;;;5037636;28;20033;-92
2022/12/13 07:11:18;;;;;;;29.27;13.18;;;1.80;99.90;;;;;;5037309;28;20044;-92
2022/12/13 07:13:44;;;;;;;22.17;13.15;;;1.70;99.90;;;;;;5019037;28;20366;-92
2022/12/13 07:16:10;;;;;;;24.20;12.80;;;1.70;99.90;;;;;;5038006;28;20053;-92
2022/12/13 07:18:36;;;;;;;28.08;14.70;;;1.80;99.90;;;;;;5037332;28;20029;-93
2022/12/13 07:21:09;;;;;;;22.48;14.25;;;1.90;99.90;;;;;;5037117;28;20025;-93
2022/12/13 07:23:36;;;;;;;24.65;13.88;;;2.20;99.90;;;;;;5037230;28;20029;-93
2022/12/13 07:26:02;;;;;;;24.23;13.98;;;2.10;99.90;;;;;;5037168;28;20120;-91
2022/12/13 07:28:30;;;;;;;19.63;13.05;;;2.20;99.90;;;;;;5037267;28;20037;-93
2022/12/13 07:31:01;;;;;;;21.90;13.50;;;2.00;99.90;;;;;;5037566;28;20037;-92
2022/12/13 07:33:28;;;;;;;24.20;13.18;;;2.00;99.90;;;;;;5037061;28;20026;-93
2022/12/13 07:36:08;;;;;;;25.77;13.38;;;1.90;99.90;;;;;;5036876;28;20060;-92
2022/12/13 07:38:35;;;;;;;24.08;13.90;;;2.00;99.90;;;;;;5031560;28;20037;-93
2022/12/13 07:41:01;;;;;;;27.95;15.00;;;2.00;99.90;;;;;;5036782;28;20072;-92
2022/12/13 07:43:28;;;;;;;30.08;14.55;;;2.10;99.90;;;;;;5015928;28;20021;-92
2022/12/13 07:45:58;;;;;;;23.73;13.98;;;2.30;99.90;;;;;;5036935;28;20085;-92
2022/12/13 07:48:24;;;;;;;19.90;12.38;;;2.60;99.90;;;;;;5035964;28;20098;-87
2022/12/13 07:50:49;;;;;;;20.75;12.43;;;2.10;99.90;;;;;;5005379;28;20029;-87
2022/12/13 07:53:15;;;;;;;23.17;13.10;;;2.20;99.90;;;;;;5035183;28;20032;-88
2022/12/13 07:55:41;;;;;;;22.52;13.48;;;2.30;99.90;;;;;;5029305;28;20022;-87
2022/12/13 07:58:09;;;;;;;20.70;12.32;;;2.20;99.90;;;;;;5015357;28;20030;-87
2022/12/13 08:00:39;;;;;;;25.63;12.60;;;2.10;99.90;;;;;;5020520;28;20024;-88
2022/12/13 08:03:05;;;;;;;21.55;12.88;;;2.10;99.90;;;;;;5035071;28;20045;-88
2022/12/13 08:05:32;;;;;;;21.10;13.07;;;2.00;99.90;;;;;;5018024;28;20500;-87
2022/12/13 08:07:59;;;;;;;18.77;12.98;;;2.10;99.90;;;;;;5026610;28;20056;-88
2022/12/13 08:10:26;;;;;;;20.75;13.13;;;2.20;99.90;;;;;;5026851;28;20039;-86
2022/12/13 08:12:51;;;;;;;21.48;13.45;;;2.10;99.90;;;;;;5035328;28;20481;-88
2022/12/13 08:15:17;;;;;;;21.50;13.35;;;2.10;99.90;;;;;;5035562;28;20033;-87
2022/12/13 08:17:43;;;;;;;25.05;13.63;;;2.20;99.90;;;;;;5035856;28;20120;-87
2022/12/13 08:20:09;;;;;;;19.50;13.13;;;2.50;99.90;;;;;;5035602;28;20100;-86
2022/12/13 08:22:35;;;;;;;21.15;14.02;;;2.20;99.90;;;;;;5009110;28;20557;-87
2022/12/13 08:25:01;;;;;;;20.83;14.25;;;2.30;99.90;;;;;;5016720;28;20068;-87
2022/12/13 08:27:27;;;;;;;22.13;14.57;;;2.50;99.90;;;;;;5034937;28;20053;-88
2022/12/13 08:29:52;;;;;;;21.13;13.88;;;2.80;99.90;;;;;;5035298;28;20071;-88
2022/12/13 08:32:18;;;;;;;19.83;13.13;;;2.80;99.90;;;;;;5034639;28;20465;-87
2022/12/13 08:34:44;;;;;;;20.73;13.27;;;2.70;99.90;;;;;;5017163;28;20485;-88
2022/12/13 08:37:10;;;;;;;21.27;13.52;;;2.80;99.90;;;;;;5035013;28;20477;-88
2022/12/13 08:39:38;;;;;;;18.02;13.02;;;2.60;99.90;;;;;;5017134;28;20048;-88
2022/12/13 08:42:07;;;;;;;22.10;13.70;;;2.50;99.90;;;;;;5034830;28;20041;-88
2022/12/13 08:44:32;;;;;;;21.92;13.50;;;2.60;99.90;;;;;;5035528;28;20033;-88
2022/12/13 08:46:58;;;;;;;21.73;13.30;;;2.60;99.90;;;;;;5034514;28;20037;-88
2022/12/13 08:49:23;;;;;;;22.13;14.93;;;2.70;99.90;;;;;;5034814;28;20401;-88
2022/12/13 08:51:49;;;;;;;19.77;14.32;;;2.80;99.90;;;;;;5034626;28;20036;-88
2022/12/13 08:54:14;;;;;;;21.77;14.70;;;2.90;99.90;;;;;;5034727;28;20025;-86
2022/12/13 08:56:40;;;;;;;20.95;14.57;;;2.90;99.90;;;;;;5034930;28;20095;-87
2022/12/13 08:59:06;;;;;;;20.33;14.70;;;3.00;99.90;;;;;;5016752;28;20018;-87
2022/12/13 09:01:32;;;;;;;20.08;14.23;;;3.20;99.90;;;;;;5034540;28;20444;-87
2022/12/13 09:03:58;;;;;;;20.25;14.75;;;3.20;99.90;;;;;;5017225;28;20033;-88
2022/12/13 09:06:23;;;;;;;19.45;13.68;;;3.30;99.90;;;;;;5034002;28;20125;-88
2022/12/13 09:08:52;;;;;;;19.88;13.20;;;3.40;99.90;;;;;;5034340;28;20052;-87
2022/12/13 09:11:19;;;;;;;18.00;13.05;;;3.50;99.90;;;;;;5019042;28;20100;-88
2022/12/13 09:13:45;;;;;;;18.25;13.30;;;3.50;99.90;;;;;;5034096;28;20041;-88
2022/12/13 09:16:14;;;;;;;25.67;15.50;;;3.60;99.90;;;;;;5033382;28;20067;-89
2022/12/13 09:18:42;;;;;;;21.40;14.20;;;3.60;99.90;;;;;;5033805;28;20079;-96
2022/12/13 09:21:09;;;;;;;22.52;14.75;;;3.80;99.90;;;;;;5015612;28;20063;-86
2022/12/13 09:23:35;;;;;;;22.17;14.13;;;3.40;99.90;;;;;;5033112;28;20477;-87
2022/12/13 09:26:01;;;;;;;21.00;14.25;;;3.50;99.90;;;;;;5015820;28;20029;-87
2022/12/13 09:28:28;;;;;;;18.38;13.32;;;3.40;99.90;;;;;;5034276;28;20508;-87
2022/12/13 09:30:54;;;;;;;24.50;14.80;;;3.60;99.90;;;;;;5035011;28;20413;-87
2022/12/13 09:33:20;;;;;;;20.80;12.90;;;3.50;99.90;;;;;;5034261;28;20027;-87
2022/12/13 09:35:46;;;;;;;20.13;12.88;;;3.50;99.90;;;;;;5033977;28;20025;-87
2022/12/13 09:38:12;;;;;;;21.20;13.88;;;3.20;99.90;;;;;;5035171;28;20124;-88
2022/12/13 09:40:38;;;;;;;20.40;13.20;;;3.60;99.90;;;;;;5035067;28;20037;-87
2022/12/13 09:43:04;;;;;;;21.77;14.52;;;3.50;99.90;;;;;;5034603;28;20032;-88
2022/12/13 09:45:32;;;;;;;19.65;13.02;;;2.80;99.90;;;;;;5034527;28;20026;-87
2022/12/13 09:47:59;;;;;;;19.63;13.20;;;2.60;99.90;;;;;;5034975;28;20065;-87
2022/12/13 09:50:34;;;;;;;21.30;13.80;;;2.50;99.90;;;;;;5032731;28;20060;-87
2022/12/13 09:53:05;;;;;;;21.52;14.43;;;3.00;99.90;;;;;;5034263;28;20022;-88
2022/12/13 09:55:37;;;;;;;19.65;14.10;;;3.30;99.90;;;;;;5035457;28;20075;-87
2022/12/13 09:58:12;;;;;;;19.95;14.27;;;3.10;99.90;;;;;;5034614;28;20025;-88
2022/12/13 10:00:38;;;;;;;18.77;12.90;;;3.40;99.90;;;;;;5033667;28;20037;-88
2022/12/13 10:03:03;;;;;;;18.27;12.95;;;3.30;99.90;;;;;;5031618;28;20029;-88
2022/12/13 10:05:35;;;;;;;18.45;12.95;;;3.60;99.90;;;;;;5032935;28;20104;-88
2022/12/13 10:08:05;;;;;;;19.85;12.30;;;3.10;99.90;;;;;;5032849;28;20556;-88
2022/12/13 10:10:31;;;;;;;19.17;13.05;;;3.00;99.90;;;;;;5013577;28;20069;-88
2022/12/13 10:13:23;;;;;;;19.88;13.77;;;2.90;99.90;;;;;;5015692;28;20105;-87
2022/12/13 10:16:01;;;;;;;18.67;12.73;;;3.00;99.90;;;;;;5019590;28;20046;-87
2022/12/13 10:18:36;;;;;;;22.40;15.43;;;3.00;99.90;;;;;;5031663;28;20505;-89
2022/12/13 10:21:24;;;;;;;21.23;13.30;;;3.30;99.90;;;;;;5031423;28;20494;-88
2022/12/13 10:23:50;;;;;;;22.38;14.77;;;3.20;99.90;;;;;;5031889;28;20049;-87
2022/12/13 10:26:16;;;;;;;19.67;13.57;;;3.50;99.90;;;;;;5032449;28;20072;-88
2022/12/13 10:28:42;;;;;;;23.45;15.05;;;4.10;99.90;;;;;;5032224;28;20088;-88
2022/12/13 10:31:15;;;;;;;23.00;14.15;;;3.50;99.90;;;;;;5031314;28;20037;-88
2022/12/13 10:33:50;;;;;;;22.70;14.55;;;3.30;99.90;;;;;;5031510;28;20014;-88
2022/12/13 10:36:34;;;;;;;21.00;13.77;;;3.20;99.90;;;;;;5032438;28;20495;-88
2022/12/13 10:39:00;;;;;;;22.27;14.20;;;3.30;99.90;;;;;;5034106;28;20013;-90
2022/12/13 10:41:34;;;;;;;23.17;15.88;;;3.30;99.90;;;;;;5016453;28;20029;-89
2022/12/13 10:44:20;;;;;;;21.92;15.07;;;3.90;99.90;;;;;;5032055;28;20036;-88
2022/12/13 10:47:09;;;;;;;23.17;14.50;;;4.40;99.90;;;;;;5031624;28;20017;-89
2022/12/13 10:49:53;;;;;;;21.92;15.85;;;3.80;99.90;;;;;;5029959;28;20048;-90
2022/12/13 10:52:38;;;;;;;23.08;15.52;;;4.00;99.90;;;;;;5031509;28;20022;-89
2022/12/13 10:55:10;;;;;;;23.15;16.02;;;3.90;99.90;;;;;;5026549;28;20087;-87
2022/12/13 10:57:36;;;;;;;23.15;15.45;;;3.90;99.90;;;;;;5031420;28;20055;-87
2022/12/13 11:00:02;;;;;;;22.92;15.63;;;3.80;99.90;;;;;;5030253;28;20432;-86
2022/12/13 11:02:36;;;;;;;21.30;14.68;;;3.60;99.90;;;;;;5012199;28;20083;-88
2022/12/13 11:05:32;;;;;;;19.92;13.45;;;3.70;99.90;;;;;;5010675;28;20403;-88
2022/12/13 11:08:19;;;;;;;25.88;15.02;;;4.20;99.90;;;;;;5030260;28;20064;-87
2022/12/13 11:10:52;;;;;;;20.17;14.57;;;3.90;99.90;;;;;;5012135;28;20042;-87
2022/12/13 11:13:43;;;;;;;18.65;13.57;;;4.70;99.90;;;;;;5025322;28;20375;-88
2022/12/13 11:16:31;;;;;;;17.30;12.52;;;4.60;99.90;;;;;;5030899;28;20091;-87
2022/12/13 11:19:01;;;;;;;18.23;12.75;;;4.40;99.90;;;;;;5013224;28;20409;-88
2022/12/13 11:21:33;;;;;;;19.65;13.57;;;5.10;99.90;;;;;;5014310;28;20030;-88
2022/12/13 11:24:04;;;;;;;17.33;12.63;;;5.20;99.90;;;;;;5024321;28;20038;-86
2022/12/13 11:26:34;;;;;;;17.77;12.25;;;4.70;99.90;;;;;;5039937;28;20040;-87
2022/12/13 11:29:33;;;;;;;17.25;12.82;;;4.30;99.90;;;;;;5047143;28;20028;-87
2022/12/13 11:32:33;;;;;;;17.58;12.30;;;4.10;99.90;;;;;;5041293;28;20032;-88
2022/12/13 11:35:00;;;;;;;17.48;12.35;;;4.00;99.90;;;;;;5030950;28;20064;-87
2022/12/13 11:37:39;;;;;;;16.40;12.32;;;4.10;99.90;;;;;;5031257;28;20383;-87
2022/12/13 11:40:13;;;;;;;13.32;10.02;;;4.50;99.90;;;;;;5031507;28;20474;-86
2022/12/13 11:42:38;;;;;;;15.73;10.70;;;4.40;99.90;;;;;;5031921;28;20411;-87
2022/12/13 11:45:15;;;;;;;15.15;12.05;;;4.00;99.90;;;;;;5031069;28;20033;-86
2022/12/13 11:47:54;;;;;;;14.98;11.25;;;4.70;99.90;;;;;;5031788;28;20034;-87
2022/12/13 11:50:27;;;;;;;15.63;11.95;;;4.50;99.90;;;;;;5034805;28;20029;-85
2022/12/13 11:52:58;;;;;;;14.70;10.88;;;4.70;99.90;;;;;;5034968;28;20076;-87
2022/12/13 11:55:43;;;;;;;15.18;11.35;;;5.00;99.90;;;;;;5035439;28;20040;-87
2022/12/13 11:58:21;;;;;;;17.35;11.95;;;4.90;99.90;;;;;;5035203;28;20018;-85
2022/12/13 12:00:55;;;;;;;14.25;11.02;;;5.20;99.90;;;;;;5034762;28;20498;-86
2022/12/13 12:03:38;;;;;;;13.40;9.93;;;5.20;99.90;;;;;;5034135;28;20517;-87
2022/12/13 12:06:13;;;;;;;14.70;10.90;;;5.20;99.90;;;;;;5035387;28;20033;-87
2022/12/13 12:09:03;;;;;;;14.80;10.27;;;5.50;99.90;;;;;;5034699;28;20033;-87
2022/12/13 12:11:45;;;;;;;14.77;10.82;;;4.70;99.90;;;;;;5034040;28;20056;-86
2022/12/13 12:14:40;;;;;;;15.52;11.13;;;5.20;99.90;;;;;;5033725;28;20481;-85
2022/12/13 12:17:12;;;;;;;13.52;10.63;;;4.80;99.90;;;;;;5033617;28;20049;-86
2022/12/13 12:19:42;;;;;;;14.45;11.10;;;5.00;99.90;;;;;;5034076;28;20030;-89
2022/12/13 12:22:12;;;;;;;14.63;11.45;;;5.00;99.90;;;;;;5036161;28;20068;-93
2022/12/13 12:24:47;;;;;;;14.75;11.57;;;4.90;99.90;;;;;;5037063;28;20537;-96
2022/12/13 12:27:19;;;;;;;15.60;11.27;;;5.20;99.90;;;;;;5034064;28;20060;-88
2022/12/13 12:30:02;;;;;;;14.88;11.05;;;5.20;99.90;;;;;;5033839;28;20488;-88
2022/12/13 12:32:46;;;;;;;16.38;11.60;;;5.20;99.90;;;;;;5032975;28;20033;-88
2022/12/13 12:35:25;;;;;;;15.77;11.77;;;4.80;99.90;;;;;;5031654;28;20083;-87
2022/12/13 12:37:53;;;;;;;13.63;11.70;;;4.80;99.90;;;;;;5016019;28;20065;-92
2022/12/13 12:40:53;;;;;;;14.60;11.15;;;4.90;99.90;;;;;;5033580;28;20045;-87
2022/12/13 12:43:42;;;;;;;15.43;11.30;;;4.40;99.90;;;;;;5032244;28;20029;-87
2022/12/13 12:46:39;;;;;;;13.65;10.20;;;4.30;99.90;;;;;;5034624;28;20102;-87
2022/12/13 12:49:22;;;;;;;16.08;12.15;;;4.30;99.90;;;;;;5033860;28;20541;-87
2022/12/13 12:52:25;;;;;;;15.55;11.68;;;4.40;99.90;;;;;;5033879;28;20030;-88
2022/12/13 12:55:14;;;;;;;16.33;11.80;;;4.60;99.90;;;;;;5020652;28;20493;-87